Time;durP1;ratioP1;P1;durP2;ratioP2;P2;SDS_P1;SDS_P2;PMS_P1;PMS_P2;Temp;Humidity;BMP_temperature;BMP_pressure;BME280_temperature;BME280_humidity;BME280_pressure;Samples;Min_cycle;Max_cycle;Signal;HPM_P1;HPM_P2
2021/09/30 00:01:58;;;;;;;5.17;3.40;;;13.20;99.90;;;;;;5113796;27;20465;-84
2021/09/30 00:04:26;;;;;;;4.70;2.77;;;13.20;99.90;;;;;;5116316;27;20553;-84
2021/09/30 00:06:53;;;;;;;5.80;3.10;;;13.20;99.90;;;;;;5121183;28;20551;-84
2021/09/30 00:09:20;;;;;;;3.63;3.33;;;13.20;99.90;;;;;;5118733;28;20460;-83
2021/09/30 00:11:49;;;;;;;3.10;2.80;;;13.20;99.90;;;;;;5110959;27;21175;-83
2021/09/30 00:14:23;;;;;;;3.33;2.60;;;13.20;99.90;;;;;;5110830;27;20825;-86
2021/09/30 00:17:15;;;;;;;7.23;3.20;;;13.20;99.90;;;;;;5120257;27;20461;-84
2021/09/30 00:33:38;;;;;;;4.10;3.00;;;13.00;99.90;;;;;;5097948;28;20551;-86
2021/09/30 00:39:32;;;;;;;3.30;2.40;;;13.00;99.90;;;;;;5105092;27;20557;-83
2021/09/30 00:41:50;;;;;;;4.43;2.37;;;13.00;99.90;;;;;;5105453;28;20461;-83
2021/09/30 00:47:10;;;;;;;3.20;2.80;;;13.00;99.90;;;;;;5100632;28;20482;-84
2021/09/30 00:52:25;;;;;;;4.80;2.77;;;13.00;99.90;;;;;;5100016;28;20540;-84
2021/09/30 00:55:28;;;;;;;9.40;2.80;;;13.00;99.90;;;;;;5102448;28;20450;-83
2021/09/30 01:33:15;;;;;;;5.37;3.10;;;13.00;99.90;;;;;;5102193;28;20560;-86
2021/09/30 01:46:38;;;;;;;4.07;3.43;;;12.90;99.90;;;;;;5101162;28;20983;-86
2021/09/30 01:52:20;;;;;;;3.60;3.30;;;12.90;99.90;;;;;;5109540;28;20454;-83
2021/09/30 02:20:21;;;;;;;3.73;3.10;;;12.80;99.90;;;;;;5095950;28;20542;-85
2021/09/30 02:23:10;;;;;;;11.53;2.97;;;12.80;99.90;;;;;;5104852;27;20451;-84
2021/09/30 02:26:03;;;;;;;4.07;3.27;;;12.80;99.90;;;;;;5100309;28;20486;-85
2021/09/30 02:28:48;;;;;;;2.90;2.70;;;12.80;99.90;;;;;;5100919;28;20493;-84
2021/09/30 02:40:05;;;;;;;3.40;3.10;;;12.80;99.90;;;;;;5099172;28;20465;-85
2021/09/30 02:59:46;;;;;;;3.10;2.83;;;12.70;99.90;;;;;;5096077;28;20472;-85
2021/09/30 03:02:16;;;;;;;9.90;4.13;;;12.70;99.90;;;;;;5106257;28;20886;-86
2021/09/30 03:04:44;;;;;;;7.33;3.50;;;12.70;99.90;;;;;;5101369;28;20460;-86
2021/09/30 03:07:14;;;;;;;4.03;3.20;;;12.70;99.90;;;;;;5098020;27;20485;-86
2021/09/30 03:09:44;;;;;;;3.30;2.70;;;12.70;99.90;;;;;;5098490;28;20487;-84
2021/09/30 03:12:21;;;;;;;5.63;4.53;;;12.70;99.90;;;;;;5099162;28;20450;-84
2021/09/30 03:14:59;;;;;;;3.90;2.90;;;12.70;99.90;;;;;;5099906;27;20461;-84
2021/09/30 03:17:31;;;;;;;3.53;3.03;;;12.60;99.90;;;;;;5099605;27;20463;-84
2021/09/30 03:20:04;;;;;;;6.00;3.13;;;12.70;99.90;;;;;;5103690;27;20462;-85
2021/09/30 03:22:33;;;;;;;8.63;3.50;;;12.60;99.90;;;;;;5094471;27;20825;-87
2021/09/30 03:25:01;;;;;;;3.77;3.47;;;12.60;99.90;;;;;;5100607;28;21045;-84
2021/09/30 03:27:29;;;;;;;4.87;2.87;;;12.70;99.90;;;;;;5094327;27;21011;-85
2021/09/30 03:29:56;;;;;;;5.50;2.90;;;12.70;99.90;;;;;;5102215;28;20463;-85
2021/09/30 03:32:23;;;;;;;4.97;3.10;;;12.70;99.90;;;;;;5091802;28;20568;-83
2021/09/30 03:34:50;;;;;;;4.30;3.00;;;12.70;99.90;;;;;;5092916;28;20463;-85
2021/09/30 03:37:18;;;;;;;7.87;3.20;;;12.70;99.90;;;;;;5101870;28;20967;-86
2021/09/30 03:39:47;;;;;;;8.33;3.20;;;12.70;99.90;;;;;;5100864;27;21078;-86
2021/09/30 03:42:13;;;;;;;5.10;3.40;;;12.70;99.90;;;;;;5094326;28;20911;-85
2021/09/30 03:44:40;;;;;;;3.80;3.00;;;12.70;99.90;;;;;;5102167;27;20539;-85
2021/09/30 03:47:07;;;;;;;4.30;3.20;;;12.70;99.90;;;;;;5101073;27;20558;-84
2021/09/30 03:49:35;;;;;;;5.67;3.50;;;12.70;99.90;;;;;;5101989;28;20827;-85
2021/09/30 03:52:07;;;;;;;5.20;3.07;;;12.70;99.90;;;;;;5105682;28;20461;-86
2021/09/30 03:54:42;;;;;;;5.67;2.87;;;12.60;99.90;;;;;;5108279;28;20843;-85
2021/09/30 03:57:22;;;;;;;8.20;4.07;;;12.60;99.90;;;;;;5100164;28;20807;-84
2021/09/30 03:59:48;;;;;;;6.63;3.33;;;12.60;99.90;;;;;;5099055;28;20522;-83
2021/09/30 04:02:15;;;;;;;6.70;3.10;;;12.60;99.90;;;;;;5105917;28;20450;-86
2021/09/30 04:04:42;;;;;;;5.23;3.27;;;12.60;99.90;;;;;;5098968;28;20787;-84
2021/09/30 04:07:10;;;;;;;7.60;3.20;;;12.60;99.90;;;;;;5105845;28;20496;-85
2021/09/30 04:09:39;;;;;;;9.10;3.50;;;12.60;99.90;;;;;;5107862;28;20962;-86
2021/09/30 04:12:08;;;;;;;4.13;3.10;;;12.60;99.90;;;;;;5099869;28;21010;-84
2021/09/30 04:14:37;;;;;;;4.60;3.43;;;12.60;99.90;;;;;;5098046;28;20898;-87
2021/09/30 04:17:05;;;;;;;4.20;2.70;;;12.60;99.90;;;;;;5096304;27;20866;-85
2021/09/30 04:19:32;;;;;;;4.33;3.63;;;12.50;99.90;;;;;;5101686;28;20502;-84
2021/09/30 04:21:59;;;;;;;4.03;2.60;;;12.60;99.90;;;;;;5108777;27;20455;-84
2021/09/30 04:24:27;;;;;;;5.53;3.67;;;12.60;99.90;;;;;;5102964;27;20460;-84
2021/09/30 04:26:56;;;;;;;5.07;3.30;;;12.50;99.90;;;;;;5100044;27;20514;-84
2021/09/30 04:29:23;;;;;;;3.30;3.00;;;12.50;99.90;;;;;;5102487;28;20471;-85
2021/09/30 04:31:52;;;;;;;7.50;3.80;;;12.50;99.90;;;;;;5100909;28;20574;-84
2021/09/30 04:34:20;;;;;;;6.53;3.50;;;12.50;99.90;;;;;;5096536;28;20457;-86
2021/09/30 04:36:47;;;;;;;4.13;3.23;;;12.50;99.90;;;;;;5102887;28;20475;-84
2021/09/30 04:39:16;;;;;;;7.23;4.20;;;12.50;99.90;;;;;;5099763;28;20447;-85
2021/09/30 04:41:44;;;;;;;6.70;3.60;;;12.50;99.90;;;;;;5099101;27;20874;-85
2021/09/30 04:44:11;;;;;;;5.80;3.63;;;12.50;99.90;;;;;;5106552;28;20451;-86
2021/09/30 04:46:39;;;;;;;8.63;4.23;;;12.50;99.90;;;;;;5100334;28;20478;-84
2021/09/30 04:49:08;;;;;;;7.10;4.57;;;12.60;99.90;;;;;;5105583;28;20494;-87
2021/09/30 04:51:38;;;;;;;6.80;4.07;;;12.50;99.90;;;;;;5103647;28;20477;-85
2021/09/30 04:54:06;;;;;;;10.00;4.60;;;12.50;99.90;;;;;;5100714;28;20544;-86
2021/09/30 04:56:33;;;;;;;6.93;4.63;;;12.50;99.90;;;;;;5104859;28;20830;-84
2021/09/30 04:59:03;;;;;;;5.03;3.90;;;12.50;99.90;;;;;;5100889;28;20887;-85
2021/09/30 05:01:30;;;;;;;6.03;4.53;;;12.50;99.90;;;;;;5096652;28;20457;-85
2021/09/30 05:03:57;;;;;;;8.20;4.50;;;12.50;99.90;;;;;;5096425;28;20550;-86
2021/09/30 05:06:27;;;;;;;9.67;4.93;;;12.40;99.90;;;;;;5098294;28;20496;-84
2021/09/30 05:08:58;;;;;;;9.53;4.60;;;12.40;99.90;;;;;;5099752;28;21028;-86
2021/09/30 05:11:31;;;;;;;4.67;3.87;;;12.40;99.90;;;;;;5101029;27;20505;-84
2021/09/30 05:13:59;;;;;;;9.37;4.47;;;12.40;99.90;;;;;;5099404;28;20546;-85
2021/09/30 05:16:26;;;;;;;6.87;4.87;;;12.40;99.90;;;;;;5102140;27;20957;-86
2021/09/30 05:18:55;;;;;;;8.03;4.97;;;12.40;99.90;;;;;;5106826;28;20894;-84
2021/09/30 05:21:23;;;;;;;5.77;4.17;;;12.40;99.90;;;;;;5106982;27;20461;-86
2021/09/30 05:23:54;;;;;;;9.00;4.70;;;12.40;99.90;;;;;;5102660;27;20457;-86
2021/09/30 05:26:23;;;;;;;8.37;4.50;;;12.30;99.90;;;;;;5101801;28;20546;-86
2021/09/30 05:28:49;;;;;;;8.73;4.43;;;12.30;99.90;;;;;;5099680;28;21253;-86
2021/09/30 05:31:16;;;;;;;6.50;4.43;;;12.30;99.90;;;;;;5099865;27;20907;-84
2021/09/30 05:33:44;;;;;;;5.70;3.57;;;12.40;99.90;;;;;;5103506;28;20540;-86
2021/09/30 05:36:11;;;;;;;10.83;4.90;;;12.40;99.90;;;;;;5096857;28;20470;-87
2021/09/30 05:38:38;;;;;;;7.07;3.90;;;12.40;99.90;;;;;;5094447;28;20474;-85
2021/09/30 05:41:10;;;;;;;6.87;4.10;;;12.40;99.90;;;;;;5100555;28;20449;-86
2021/09/30 05:43:42;;;;;;;3.63;3.23;;;12.40;99.90;;;;;;5104562;27;20450;-85
2021/09/30 05:46:11;;;;;;;9.07;3.97;;;12.40;99.90;;;;;;5106978;28;20953;-85
2021/09/30 05:48:38;;;;;;;4.93;3.40;;;12.40;99.90;;;;;;5099122;28;20520;-85
2021/09/30 05:51:06;;;;;;;8.20;3.80;;;12.40;99.90;;;;;;5100932;28;20451;-86
2021/09/30 05:53:33;;;;;;;7.70;3.80;;;12.40;99.90;;;;;;5096349;28;20451;-86
2021/09/30 05:56:00;;;;;;;9.53;4.63;;;12.40;99.90;;;;;;5094650;27;20462;-85
2021/09/30 05:58:28;;;;;;;5.10;3.80;;;12.40;99.90;;;;;;5095230;28;20494;-84
2021/09/30 06:01:05;;;;;;;7.27;3.90;;;12.40;99.90;;;;;;5097545;28;20470;-86
2021/09/30 06:12:20;;;;;;;10.60;4.40;;;12.30;99.90;;;;;;5092198;27;20446;-86
2021/09/30 06:14:50;;;;;;;3.90;3.43;;;12.30;99.90;;;;;;5084325;28;20894;-85
2021/09/30 06:17:17;;;;;;;5.57;3.20;;;12.30;99.90;;;;;;5092494;28;20458;-84
2021/09/30 06:19:45;;;;;;;4.30;3.90;;;12.30;99.90;;;;;;5088406;28;20467;-84
2021/09/30 06:22:12;;;;;;;6.10;3.97;;;12.30;99.90;;;;;;5095263;27;20980;-84
2021/09/30 06:24:40;;;;;;;12.10;5.20;;;12.30;99.90;;;;;;5087394;28;20475;-85
2021/09/30 06:27:07;;;;;;;3.17;2.87;;;12.30;99.90;;;;;;5092005;28;20561;-86
2021/09/30 06:29:34;;;;;;;5.93;3.53;;;12.30;99.90;;;;;;5090754;28;20486;-85
2021/09/30 06:32:02;;;;;;;5.33;4.23;;;12.30;99.90;;;;;;5085552;28;20712;-86
2021/09/30 06:34:30;;;;;;;3.93;3.17;;;12.30;99.90;;;;;;5089688;28;20489;-84
2021/09/30 06:36:57;;;;;;;5.37;4.00;;;12.30;99.90;;;;;;5096522;28;20462;-85
2021/09/30 06:39:24;;;;;;;4.70;3.70;;;12.30;99.90;;;;;;5092381;28;20461;-86
2021/09/30 06:41:51;;;;;;;6.40;3.80;;;12.40;99.90;;;;;;5097279;28;20456;-86
2021/09/30 06:44:18;;;;;;;7.33;3.30;;;12.40;99.90;;;;;;5085135;28;20469;-86
2021/09/30 06:46:45;;;;;;;7.07;3.50;;;12.40;99.90;;;;;;5093267;27;20477;-85
2021/09/30 06:49:13;;;;;;;5.07;3.80;;;12.40;99.90;;;;;;5091121;28;20548;-85
2021/09/30 06:51:40;;;;;;;5.63;3.60;;;12.40;99.90;;;;;;5096119;28;20456;-86
2021/09/30 06:54:08;;;;;;;4.43;3.37;;;12.40;99.90;;;;;;5095254;28;20549;-84
2021/09/30 06:56:35;;;;;;;5.70;3.83;;;12.40;99.90;;;;;;5090722;28;20925;-86
2021/09/30 06:59:05;;;;;;;6.20;3.90;;;12.40;99.90;;;;;;5092341;27;20503;-85
2021/09/30 07:01:33;;;;;;;4.57;3.20;;;12.40;99.90;;;;;;5091219;27;20568;-85
2021/09/30 07:04:01;;;;;;;4.60;3.70;;;12.40;99.90;;;;;;5090488;28;20458;-85
2021/09/30 07:06:29;;;;;;;4.23;3.07;;;12.50;99.90;;;;;;5094158;28;20492;-85
2021/09/30 07:08:56;;;;;;;6.00;3.40;;;12.50;99.90;;;;;;5088380;28;20502;-86
2021/09/30 07:11:23;;;;;;;5.67;3.23;;;12.50;99.90;;;;;;5094708;28;21098;-84
2021/09/30 07:13:50;;;;;;;4.60;3.60;;;12.50;99.90;;;;;;5088696;28;21200;-86
2021/09/30 07:16:17;;;;;;;3.57;3.27;;;12.60;99.90;;;;;;5092511;28;20458;-86
2021/09/30 07:18:43;;;;;;;6.93;3.77;;;12.60;99.90;;;;;;5092367;28;20464;-86
2021/09/30 07:21:10;;;;;;;6.70;4.00;;;12.60;99.90;;;;;;5089472;28;20545;-85
2021/09/30 07:23:39;;;;;;;10.10;4.53;;;12.60;99.90;;;;;;5089065;28;20496;-85
2021/09/30 07:26:09;;;;;;;3.20;3.00;;;12.60;99.90;;;;;;5093738;27;20549;-86
2021/09/30 07:28:36;;;;;;;4.30;3.30;;;12.70;99.90;;;;;;5098289;28;20837;-85
2021/09/30 07:31:03;;;;;;;5.50;3.73;;;12.70;99.90;;;;;;5093944;28;20468;-86
2021/09/30 07:33:31;;;;;;;7.90;3.80;;;12.80;99.90;;;;;;5098016;28;20992;-87
2021/09/30 07:35:58;;;;;;;5.40;3.73;;;12.80;99.90;;;;;;5095634;28;20478;-86
2021/09/30 07:38:25;;;;;;;5.20;4.20;;;12.90;99.90;;;;;;5093522;28;21467;-85
2021/09/30 07:40:53;;;;;;;3.90;3.30;;;12.90;99.90;;;;;;5094806;28;20543;-84
2021/09/30 07:43:20;;;;;;;4.13;3.07;;;12.90;99.90;;;;;;5093347;28;20466;-85
2021/09/30 07:45:48;;;;;;;4.20;2.80;;;12.90;99.90;;;;;;5094720;27;20454;-86
2021/09/30 07:48:15;;;;;;;9.37;3.50;;;13.00;99.90;;;;;;5094751;28;20528;-85
2021/09/30 07:50:42;;;;;;;8.77;3.30;;;13.00;99.90;;;;;;5094792;27;20544;-84
2021/09/30 07:53:10;;;;;;;4.83;3.27;;;13.00;99.90;;;;;;5095449;28;20713;-85
2021/09/30 07:55:37;;;;;;;5.67;3.40;;;13.10;99.90;;;;;;5097913;28;20471;-87
2021/09/30 07:58:09;;;;;;;4.13;3.10;;;13.20;99.90;;;;;;5093142;28;20466;-86
2021/09/30 08:00:37;;;;;;;4.57;3.20;;;13.20;99.90;;;;;;5095550;28;20465;-84
2021/09/30 08:03:05;;;;;;;6.30;4.43;;;13.20;99.90;;;;;;5093205;27;20526;-86
2021/09/30 08:05:34;;;;;;;7.50;3.53;;;13.30;99.90;;;;;;5094918;27;20456;-86
2021/09/30 08:08:02;;;;;;;7.80;3.67;;;13.30;99.90;;;;;;5099199;27;20565;-86
2021/09/30 08:10:32;;;;;;;6.00;3.47;;;13.40;99.90;;;;;;5098934;28;20528;-85
2021/09/30 08:12:59;;;;;;;6.13;3.53;;;13.40;99.90;;;;;;5093912;28;21125;-85
2021/09/30 08:15:28;;;;;;;2.87;2.60;;;13.40;99.90;;;;;;5095930;28;20466;-88
2021/09/30 08:17:55;;;;;;;4.03;3.30;;;13.40;99.90;;;;;;5092789;28;20514;-86
2021/09/30 08:20:22;;;;;;;4.80;3.20;;;13.50;99.90;;;;;;5096744;28;20970;-87
2021/09/30 08:22:50;;;;;;;4.10;3.07;;;13.50;99.90;;;;;;5098849;27;21158;-86
2021/09/30 08:25:18;;;;;;;14.93;3.77;;;13.60;99.90;;;;;;5093195;28;20463;-85
2021/09/30 08:27:45;;;;;;;10.63;3.97;;;13.60;99.90;;;;;;5093840;28;20552;-86
2021/09/30 08:30:12;;;;;;;4.23;3.00;;;13.60;99.90;;;;;;5097687;28;20966;-86
2021/09/30 08:32:42;;;;;;;6.07;2.90;;;13.70;99.90;;;;;;5101157;28;20888;-87
2021/09/30 08:35:10;;;;;;;6.90;3.27;;;13.70;99.90;;;;;;5093180;27;20454;-87
2021/09/30 08:37:37;;;;;;;4.27;2.70;;;13.70;99.90;;;;;;5082829;28;21200;-86
2021/09/30 08:40:06;;;;;;;6.43;2.73;;;13.70;99.90;;;;;;5089099;28;20461;-86
2021/09/30 08:42:33;;;;;;;8.47;2.90;;;13.70;99.90;;;;;;5094820;27;20798;-85
2021/09/30 08:45:01;;;;;;;4.63;3.00;;;13.80;99.90;;;;;;5091402;28;20871;-85
2021/09/30 08:47:30;;;;;;;3.57;2.30;;;13.80;99.90;;;;;;5094719;28;20570;-86
2021/09/30 08:49:59;;;;;;;3.47;2.80;;;13.80;99.90;;;;;;5088460;27;22455;-86
2021/09/30 08:52:26;;;;;;;4.00;2.77;;;13.90;99.90;;;;;;5089461;28;20455;-87
2021/09/30 08:54:54;;;;;;;4.50;2.77;;;13.90;99.90;;;;;;5091652;28;20481;-86
2021/09/30 08:57:21;;;;;;;5.07;3.30;;;13.90;99.90;;;;;;5093426;28;20466;-86
2021/09/30 09:00:01;;;;;;;3.93;2.70;;;13.90;99.90;;;;;;5098191;28;20492;-85
2021/09/30 09:02:30;;;;;;;5.43;2.87;;;14.00;99.90;;;;;;5088785;28;20467;-86
2021/09/30 09:05:00;;;;;;;5.47;2.50;;;14.00;99.90;;;;;;5096947;28;20491;-85
2021/09/30 09:07:29;;;;;;;11.40;3.93;;;14.00;99.90;;;;;;5086988;28;20791;-85
2021/09/30 09:10:06;;;;;;;10.80;2.77;;;14.00;99.90;;;;;;5088307;28;20489;-85
2021/09/30 09:12:33;;;;;;;7.47;3.37;;;14.10;99.90;;;;;;5090647;28;20448;-86
2021/09/30 09:15:01;;;;;;;10.60;3.20;;;14.10;99.90;;;;;;5092585;28;20459;-85
2021/09/30 09:17:28;;;;;;;8.30;3.30;;;14.10;99.90;;;;;;5096287;27;20457;-86
2021/09/30 09:19:59;;;;;;;4.63;3.03;;;14.20;99.90;;;;;;5098795;27;20553;-87
2021/09/30 09:22:31;;;;;;;6.00;3.07;;;14.20;99.90;;;;;;5090571;28;20458;-86
2021/09/30 09:25:07;;;;;;;9.33;3.40;;;14.20;99.90;;;;;;5089901;28;20451;-86
2021/09/30 09:27:56;;;;;;;7.40;3.03;;;14.30;99.90;;;;;;5093494;27;20882;-85
2021/09/30 09:30:35;;;;;;;2.50;2.30;;;14.30;99.90;;;;;;5090541;28;20579;-87
2021/09/30 09:33:06;;;;;;;5.40;2.80;;;14.40;99.90;;;;;;5092389;28;20476;-86
2021/09/30 09:35:49;;;;;;;4.40;2.53;;;14.40;99.90;;;;;;5088612;28;20482;-87
2021/09/30 09:38:16;;;;;;;3.87;2.70;;;14.50;99.90;;;;;;5100061;27;20459;-87
2021/09/30 09:40:45;;;;;;;6.27;2.40;;;14.50;99.90;;;;;;5089695;28;20984;-84
2021/09/30 09:43:46;;;;;;;3.77;2.70;;;14.50;99.90;;;;;;5092937;28;20465;-83
2021/09/30 09:46:18;;;;;;;4.80;2.73;;;14.60;99.90;;;;;;5018247;28;20558;-85
2021/09/30 09:48:56;;;;;;;5.27;2.50;;;14.60;99.90;;;;;;5016363;28;20908;-85
2021/09/30 09:51:25;;;;;;;5.03;2.70;;;14.70;99.90;;;;;;5055712;28;20493;-84
2021/09/30 09:53:57;;;;;;;3.10;2.17;;;14.70;99.90;;;;;;5093230;28;20512;-83
2021/09/30 09:56:25;;;;;;;3.43;2.37;;;14.70;99.90;;;;;;5091738;27;21014;-83
2021/09/30 09:58:55;;;;;;;4.60;2.80;;;14.70;99.90;;;;;;5092116;27;20901;-83
2021/09/30 10:01:24;;;;;;;4.03;2.30;;;14.80;99.90;;;;;;5098730;27;20458;-84
2021/09/30 10:04:00;;;;;;;4.80;2.23;;;14.80;99.90;;;;;;5083189;27;21225;-84
2021/09/30 10:06:32;;;;;;;6.23;2.10;;;14.90;99.90;;;;;;5095088;28;20514;-83
2021/09/30 10:09:00;;;;;;;3.93;2.30;;;14.90;99.90;;;;;;5090827;27;20486;-85
2021/09/30 10:11:28;;;;;;;6.17;2.30;;;15.00;99.90;;;;;;5091477;28;20539;-85
2021/09/30 10:13:57;;;;;;;4.50;2.53;;;15.00;99.90;;;;;;5087891;28;20568;-84
2021/09/30 10:16:26;;;;;;;4.03;2.13;;;15.00;99.90;;;;;;5096311;28;20475;-85
2021/09/30 10:18:55;;;;;;;6.77;2.00;;;15.10;99.90;;;;;;5099834;28;20462;-83
2021/09/30 10:21:22;;;;;;;6.27;2.40;;;15.10;99.90;;;;;;5091980;27;20465;-85
2021/09/30 10:23:58;;;;;;;6.00;2.40;;;15.10;99.90;;;;;;5094991;28;20465;-84
2021/09/30 10:26:35;;;;;;;3.23;1.97;;;15.20;99.90;;;;;;5092618;28;20465;-84
2021/09/30 10:29:03;;;;;;;6.90;2.93;;;15.20;99.90;;;;;;5091752;28;20487;-84
2021/09/30 10:31:33;;;;;;;4.30;2.10;;;15.20;99.90;;;;;;5094419;28;20488;-84
2021/09/30 10:34:02;;;;;;;4.70;2.00;;;15.30;99.90;;;;;;5094724;28;20468;-84
2021/09/30 10:36:43;;;;;;;4.30;2.40;;;15.30;99.90;;;;;;5094068;28;21002;-83
2021/09/30 10:39:25;;;;;;;4.53;2.20;;;15.40;99.90;;;;;;5094935;28;20461;-84
2021/09/30 10:41:57;;;;;;;9.20;2.23;;;15.40;99.90;;;;;;5092874;28;21083;-83
2021/09/30 10:44:28;;;;;;;22.40;11.33;;;15.50;99.90;;;;;;5090171;28;20507;-83
2021/09/30 10:46:58;;;;;;;6.87;3.03;;;15.60;99.90;;;;;;5097039;28;20456;-85
2021/09/30 10:49:40;;;;;;;3.57;2.30;;;15.60;99.90;;;;;;5091640;28;20517;-85
2021/09/30 10:52:28;;;;;;;2.57;2.13;;;15.70;99.90;;;;;;5092106;28;20548;-84
2021/09/30 10:55:17;;;;;;;4.53;2.20;;;15.70;99.90;;;;;;5093591;28;20535;-85
2021/09/30 10:57:45;;;;;;;9.50;2.30;;;15.70;99.90;;;;;;5094234;28;21889;-84
2021/09/30 11:00:35;;;;;;;3.43;2.47;;;15.80;99.90;;;;;;5084646;28;20484;-84
2021/09/30 11:03:20;;;;;;;4.00;2.33;;;15.90;99.90;;;;;;5088450;28;20467;-84
2021/09/30 11:06:12;;;;;;;3.67;2.27;;;15.90;99.90;;;;;;5087214;28;20465;-82
2021/09/30 11:08:40;;;;;;;3.83;2.70;;;16.00;99.90;;;;;;5087191;28;20468;-83
2021/09/30 11:11:17;;;;;;;4.80;2.20;;;16.00;99.90;;;;;;5089352;28;20520;-84
2021/09/30 11:13:46;;;;;;;5.30;2.30;;;16.00;99.90;;;;;;5093390;27;20460;-83
2021/09/30 11:16:15;;;;;;;5.43;2.70;;;16.10;99.90;;;;;;5089539;28;20463;-84
2021/09/30 11:18:50;;;;;;;8.93;2.57;;;16.10;99.50;;;;;;5092028;28;21077;-84
2021/09/30 11:21:42;;;;;;;5.53;2.83;;;16.10;99.40;;;;;;5089336;28;20967;-83
2021/09/30 11:24:10;;;;;;;2.53;2.17;;;16.10;99.40;;;;;;5094181;28;21178;-84
2021/09/30 11:27:20;;;;;;;3.00;2.20;;;16.10;99.40;;;;;;5091654;28;20464;-85
2021/09/30 11:29:48;;;;;;;2.27;2.07;;;16.10;99.50;;;;;;5097660;28;20906;-83
2021/09/30 11:32:23;;;;;;;3.23;2.07;;;16.20;99.70;;;;;;5090003;27;20701;-83
2021/09/30 11:34:51;;;;;;;4.73;2.20;;;16.20;99.40;;;;;;5088495;28;20518;-84
2021/09/30 11:37:21;;;;;;;4.80;2.13;;;16.20;99.40;;;;;;5093685;28;20470;-83
2021/09/30 11:39:50;;;;;;;5.53;2.43;;;16.20;99.40;;;;;;5088746;28;20894;-85
2021/09/30 11:42:20;;;;;;;4.80;2.13;;;16.20;99.50;;;;;;5094053;28;20553;-83
2021/09/30 11:45:00;;;;;;;6.90;2.40;;;16.20;99.30;;;;;;5097825;28;20469;-84
2021/09/30 11:47:29;;;;;;;5.13;2.97;;;16.30;99.40;;;;;;5095842;27;20985;-84
2021/09/30 11:49:56;;;;;;;3.77;2.47;;;16.30;99.50;;;;;;5094771;28;20489;-84
2021/09/30 11:52:24;;;;;;;7.20;3.53;;;16.30;99.60;;;;;;5091988;28;20922;-83
2021/09/30 11:54:51;;;;;;;3.20;2.80;;;16.30;99.70;;;;;;5089135;28;20517;-84
2021/09/30 11:57:21;;;;;;;3.43;2.50;;;16.40;99.80;;;;;;5092436;28;20463;-83
2021/09/30 11:59:49;;;;;;;5.83;2.40;;;16.40;99.90;;;;;;5090176;28;20545;-85
2021/09/30 12:02:16;;;;;;;3.17;2.20;;;16.50;99.90;;;;;;5092630;28;20515;-84
2021/09/30 12:04:45;;;;;;;3.87;2.33;;;16.50;99.80;;;;;;5090401;28;20954;-84
2021/09/30 12:07:18;;;;;;;5.00;2.17;;;16.50;99.70;;;;;;5092928;28;20551;-84
2021/09/30 12:09:46;;;;;;;8.23;2.20;;;16.60;99.70;;;;;;5092607;28;20915;-84
2021/09/30 12:12:13;;;;;;;3.30;2.27;;;16.60;99.70;;;;;;5084044;28;20538;-84
2021/09/30 12:14:42;;;;;;;6.00;2.57;;;16.60;99.60;;;;;;5096167;28;20963;-84
2021/09/30 12:17:13;;;;;;;2.77;2.10;;;16.70;99.60;;;;;;5095443;28;20458;-85
2021/09/30 12:19:41;;;;;;;7.40;2.67;;;16.70;99.60;;;;;;5100584;28;20461;-85
2021/09/30 12:22:10;;;;;;;3.30;2.30;;;16.70;99.50;;;;;;5094049;27;20461;-84
2021/09/30 12:24:40;;;;;;;5.53;2.77;;;16.70;99.50;;;;;;5095779;27;20462;-84
2021/09/30 12:27:08;;;;;;;6.63;2.80;;;16.70;99.50;;;;;;5100939;28;20553;-83
2021/09/30 12:29:42;;;;;;;6.77;2.40;;;16.80;99.10;;;;;;5096472;27;21587;-84
2021/09/30 12:32:12;;;;;;;5.80;2.73;;;16.80;99.00;;;;;;5094106;28;20476;-83
2021/09/30 12:34:40;;;;;;;3.13;2.60;;;16.70;98.90;;;;;;5093603;28;20470;-84
2021/09/30 12:37:08;;;;;;;5.97;2.40;;;16.80;99.10;;;;;;5093067;28;20468;-83
2021/09/30 12:39:35;;;;;;;2.27;2.07;;;16.80;99.20;;;;;;5094637;28;20469;-84
2021/09/30 12:42:14;;;;;;;7.33;3.20;;;16.80;99.10;;;;;;5094388;28;20796;-85
2021/09/30 12:44:48;;;;;;;4.40;2.30;;;16.80;99.20;;;;;;5096161;28;20454;-84
2021/09/30 12:47:29;;;;;;;3.83;2.40;;;16.80;99.00;;;;;;5092218;28;20888;-83
2021/09/30 12:50:01;;;;;;;7.10;2.90;;;16.70;98.80;;;;;;5095654;28;20835;-83
2021/09/30 12:52:28;;;;;;;8.10;2.40;;;16.70;98.60;;;;;;5096202;28;20511;-84
2021/09/30 12:54:56;;;;;;;5.00;2.83;;;16.70;98.80;;;;;;5095050;28;20540;-84
2021/09/30 12:57:31;;;;;;;4.20;2.40;;;16.70;99.00;;;;;;5096612;28;21368;-84
2021/09/30 13:00:12;;;;;;;3.10;2.30;;;16.60;99.10;;;;;;5094078;28;20454;-84
2021/09/30 13:02:40;;;;;;;2.63;2.43;;;16.70;99.20;;;;;;5098001;28;20453;-84
2021/09/30 13:05:09;;;;;;;9.90;3.17;;;16.70;99.20;;;;;;5092220;28;20527;-84
2021/09/30 13:07:44;;;;;;;6.80;2.60;;;16.60;99.30;;;;;;5097945;28;20486;-84
2021/09/30 13:10:13;;;;;;;7.37;2.90;;;16.60;99.30;;;;;;5093938;28;20489;-84
2021/09/30 13:12:40;;;;;;;4.90;2.27;;;16.60;99.20;;;;;;5093746;28;20472;-84
2021/09/30 13:15:09;;;;;;;4.10;2.20;;;16.60;99.20;;;;;;5089651;28;20473;-84
2021/09/30 13:17:36;;;;;;;3.43;2.27;;;16.60;99.20;;;;;;5094118;28;20462;-83
2021/09/30 13:20:06;;;;;;;2.53;2.20;;;16.50;99.10;;;;;;5091394;28;20531;-84
2021/09/30 13:22:35;;;;;;;6.10;3.00;;;16.50;99.00;;;;;;5103345;27;20499;-83
2021/09/30 13:25:05;;;;;;;3.00;2.77;;;16.50;99.10;;;;;;5096292;28;20465;-83
2021/09/30 13:27:35;;;;;;;6.47;2.30;;;16.40;99.20;;;;;;5094003;27;20465;-83
2021/09/30 13:30:06;;;;;;;5.93;2.50;;;16.50;99.20;;;;;;5093157;28;20482;-84
2021/09/30 13:32:36;;;;;;;5.00;2.50;;;16.40;99.20;;;;;;5088765;28;20486;-84
2021/09/30 13:35:04;;;;;;;3.93;2.40;;;16.40;99.20;;;;;;5096625;28;20467;-83
2021/09/30 13:37:31;;;;;;;12.70;2.70;;;16.40;99.30;;;;;;5098233;27;20825;-84
2021/09/30 13:39:59;;;;;;;3.63;2.40;;;16.40;99.20;;;;;;5094641;27;20557;-85
2021/09/30 13:42:28;;;;;;;2.90;2.00;;;16.40;99.20;;;;;;5100137;27;20964;-84
2021/09/30 13:44:56;;;;;;;5.53;3.00;;;16.40;99.20;;;;;;5090189;27;20460;-83
2021/09/30 13:47:23;;;;;;;3.97;2.57;;;16.40;99.20;;;;;;5091794;28;20600;-84
2021/09/30 13:49:51;;;;;;;5.00;2.57;;;16.50;99.80;;;;;;5087957;27;20472;-83
2021/09/30 13:52:19;;;;;;;3.47;2.70;;;16.50;99.70;;;;;;5096294;27;20848;-83
2021/09/30 13:54:47;;;;;;;3.57;2.13;;;16.50;99.60;;;;;;5098874;27;20466;-84
2021/09/30 13:57:14;;;;;;;3.10;2.53;;;16.50;99.60;;;;;;5095461;27;20596;-83
2021/09/30 13:59:41;;;;;;;5.53;2.10;;;16.60;99.80;;;;;;5099683;28;21007;-84
2021/09/30 14:02:09;;;;;;;8.50;2.47;;;16.60;99.70;;;;;;5091893;27;20460;-83
2021/09/30 14:04:37;;;;;;;3.23;2.20;;;16.70;99.70;;;;;;5099146;27;20467;-84
2021/09/30 14:07:06;;;;;;;7.53;2.30;;;16.70;99.70;;;;;;5097155;27;20936;-83
2021/09/30 14:09:34;;;;;;;5.10;3.07;;;16.70;99.70;;;;;;5095257;27;20458;-83
2021/09/30 14:12:01;;;;;;;2.30;2.20;;;16.80;99.80;;;;;;5091500;27;20487;-83
2021/09/30 14:14:28;;;;;;;8.40;3.03;;;16.80;99.60;;;;;;5090922;28;20551;-83
2021/09/30 14:16:55;;;;;;;4.13;2.40;;;16.80;99.40;;;;;;5089229;28;20553;-83
2021/09/30 14:19:25;;;;;;;2.50;2.30;;;16.80;99.40;;;;;;5079908;27;20556;-84
2021/09/30 14:21:52;;;;;;;4.43;2.60;;;16.90;99.40;;;;;;5090827;27;20468;-84
2021/09/30 14:24:21;;;;;;;2.30;2.10;;;16.90;99.30;;;;;;5094083;28;20466;-84
2021/09/30 14:26:49;;;;;;;6.73;2.33;;;16.90;99.30;;;;;;5092034;28;20931;-84
2021/09/30 16:47:00;;;;;;;7.67;4.30;;;16.20;99.20;;;;;;4940234;28;20482;-85
2021/09/30 16:49:29;;;;;;;11.00;5.83;;;16.20;99.30;;;;;;5009040;28;20582;-84
2021/09/30 16:51:57;;;;;;;6.10;4.23;;;16.20;99.30;;;;;;5081103;28;20993;-86
2021/09/30 16:54:24;;;;;;;5.40;4.90;;;16.20;99.30;;;;;;5091051;28;20570;-86
2021/09/30 16:56:52;;;;;;;5.47;3.60;;;16.20;99.30;;;;;;5100095;28;20488;-84
2021/09/30 16:59:19;;;;;;;6.80;3.70;;;16.20;99.40;;;;;;5089200;28;20837;-84
2021/09/30 17:01:47;;;;;;;9.20;4.80;;;16.20;99.40;;;;;;5098465;28;20920;-84
2021/09/30 17:04:18;;;;;;;7.30;3.83;;;16.10;99.40;;;;;;5105882;28;20460;-84
2021/09/30 17:06:47;;;;;;;5.60;3.50;;;16.10;99.40;;;;;;5097476;28;20973;-84
2021/09/30 17:09:13;;;;;;;6.67;4.27;;;16.10;99.40;;;;;;5096675;28;20472;-85
2021/09/30 17:11:40;;;;;;;6.70;3.17;;;16.10;99.40;;;;;;5096624;28;20520;-85
2021/09/30 17:14:08;;;;;;;8.50;3.10;;;16.10;99.40;;;;;;5090230;28;20561;-84
2021/09/30 17:16:36;;;;;;;5.00;3.20;;;16.10;99.50;;;;;;5097915;28;20467;-85
2021/09/30 17:19:04;;;;;;;3.17;2.77;;;16.00;99.40;;;;;;5097979;28;20465;-85
2021/09/30 17:21:31;;;;;;;5.07;2.80;;;16.00;99.50;;;;;;5101192;28;20464;-83
2021/09/30 17:24:00;;;;;;;4.93;2.80;;;16.00;99.40;;;;;;5098509;28;20797;-84
2021/09/30 17:26:27;;;;;;;4.70;3.43;;;16.00;99.40;;;;;;5098936;27;20457;-84
2021/09/30 17:28:55;;;;;;;5.20;3.63;;;16.00;99.50;;;;;;5098929;28;20519;-84
2021/09/30 17:31:26;;;;;;;9.90;4.57;;;16.00;99.50;;;;;;5093708;28;20492;-85